sensor_id;sensor_type;location;lat;lon;timestamp;P1;durP1;ratioP1;P2;durP2;ratioP2
55718;SDS011;41623;46.104;19.656;2023-02-01T00:01:07;1.60;;;1.50;;
55718;SDS011;41623;46.104;19.656;2023-02-01T00:03:34;1.85;;;1.48;;
55718;SDS011;41623;46.104;19.656;2023-02-01T00:06:00;1.15;;;1.10;;
55718;SDS011;41623;46.104;19.656;2023-02-01T00:08:26;1.45;;;1.10;;
55718;SDS011;41623;46.104;19.656;2023-02-01T00:11:26;1.33;;;0.90;;
55718;SDS011;41623;46.104;19.656;2023-02-01T00:13:45;1.13;;;1.10;;
55718;SDS011;41623;46.104;19.656;2023-02-01T00:16:19;1.38;;;1.13;;
55718;SDS011;41623;46.104;19.656;2023-02-01T00:18:45;1.35;;;1.25;;
55718;SDS011;41623;46.104;19.656;2023-02-01T00:21:12;4.03;;;2.53;;
55718;SDS011;41623;46.104;19.656;2023-02-01T00:23:38;1.73;;;1.35;;
55718;SDS011;41623;46.104;19.656;2023-02-01T00:26:05;2.08;;;1.40;;
55718;SDS011;41623;46.104;19.656;2023-02-01T00:28:32;2.05;;;1.85;;
55718;SDS011;41623;46.104;19.656;2023-02-01T00:31:00;1.65;;;1.55;;
55718;SDS011;41623;46.104;19.656;2023-02-01T00:33:27;1.58;;;1.38;;
55718;SDS011;41623;46.104;19.656;2023-02-01T00:35:57;2.67;;;1.70;;
55718;SDS011;41623;46.104;19.656;2023-02-01T00:38:24;1.40;;;1.30;;
55718;SDS011;41623;46.104;19.656;2023-02-01T00:40:50;3.97;;;1.73;;
55718;SDS011;41623;46.104;19.656;2023-02-01T00:43:16;1.92;;;1.40;;
55718;SDS011;41623;46.104;19.656;2023-02-01T00:45:42;2.50;;;1.48;;
55718;SDS011;41623;46.104;19.656;2023-02-01T00:48:08;2.22;;;1.40;;
55718;SDS011;41623;46.104;19.656;2023-02-01T00:50:34;1.90;;;1.30;;
55718;SDS011;41623;46.104;19.656;2023-02-01T00:53:00;1.88;;;1.08;;
55718;SDS011;41623;46.104;19.656;2023-02-01T00:55:26;0.98;;;0.93;;
55718;SDS011;41623;46.104;19.656;2023-02-01T00:57:52;3.95;;;1.50;;
55718;SDS011;41623;46.104;19.656;2023-02-01T01:00:18;1.35;;;1.25;;
55718;SDS011;41623;46.104;19.656;2023-02-01T01:02:44;0.88;;;0.88;;
55718;SDS011;41623;46.104;19.656;2023-02-01T01:05:11;1.10;;;1.02;;
55718;SDS011;41623;46.104;19.656;2023-02-01T01:07:37;1.50;;;1.40;;
55718;SDS011;41623;46.104;19.656;2023-02-01T01:10:03;2.05;;;1.38;;
55718;SDS011;41623;46.104;19.656;2023-02-01T01:12:30;1.35;;;1.25;;
55718;SDS011;41623;46.104;19.656;2023-02-01T01:14:56;1.15;;;1.15;;
55718;SDS011;41623;46.104;19.656;2023-02-01T01:17:22;1.10;;;1.08;;
55718;SDS011;41623;46.104;19.656;2023-02-01T01:19:48;3.05;;;1.80;;
55718;SDS011;41623;46.104;19.656;2023-02-01T01:22:14;2.58;;;1.15;;
55718;SDS011;41623;46.104;19.656;2023-02-01T01:24:40;1.52;;;1.33;;
55718;SDS011;41623;46.104;19.656;2023-02-01T01:27:06;1.60;;;1.50;;
55718;SDS011;41623;46.104;19.656;2023-02-01T01:29:32;1.50;;;1.40;;
55718;SDS011;41623;46.104;19.656;2023-02-01T01:31:58;1.63;;;1.52;;
55718;SDS011;41623;46.104;19.656;2023-02-01T01:34:25;1.80;;;1.70;;
55718;SDS011;41623;46.104;19.656;2023-02-01T01:36:51;1.10;;;1.02;;
55718;SDS011;41623;46.104;19.656;2023-02-01T01:39:17;1.80;;;1.45;;
55718;SDS011;41623;46.104;19.656;2023-02-01T01:41:43;4.90;;;1.67;;
55718;SDS011;41623;46.104;19.656;2023-02-01T01:46:54;1.10;;;1.08;;
55718;SDS011;41623;46.104;19.656;2023-02-01T01:49:20;1.27;;;1.13;;
55718;SDS011;41623;46.104;19.656;2023-02-01T01:51:49;3.22;;;1.60;;
55718;SDS011;41623;46.104;19.656;2023-02-01T01:54:21;3.08;;;2.08;;
55718;SDS011;41623;46.104;19.656;2023-02-01T01:56:51;1.42;;;1.33;;
55718;SDS011;41623;46.104;19.656;2023-02-01T01:59:19;1.83;;;1.48;;
55718;SDS011;41623;46.104;19.656;2023-02-01T02:01:46;1.52;;;1.42;;
55718;SDS011;41623;46.104;19.656;2023-02-01T02:04:12;1.75;;;1.30;;
55718;SDS011;41623;46.104;19.656;2023-02-01T02:06:40;2.05;;;1.80;;
55718;SDS011;41623;46.104;19.656;2023-02-01T02:09:10;5.35;;;1.60;;
55718;SDS011;41623;46.104;19.656;2023-02-01T02:11:36;1.25;;;1.15;;
55718;SDS011;41623;46.104;19.656;2023-02-01T02:14:03;2.28;;;0.90;;
55718;SDS011;41623;46.104;19.656;2023-02-01T02:17:35;1.35;;;1.15;;
55718;SDS011;41623;46.104;19.656;2023-02-01T02:19:45;4.25;;;1.50;;
55718;SDS011;41623;46.104;19.656;2023-02-01T02:32:32;1.15;;;1.10;;
55718;SDS011;41623;46.104;19.656;2023-02-01T02:48:29;0.80;;;0.80;;
55718;SDS011;41623;46.104;19.656;2023-02-01T02:54:13;1.65;;;1.38;;
55718;SDS011;41623;46.104;19.656;2023-02-01T02:56:59;1.05;;;0.95;;
55718;SDS011;41623;46.104;19.656;2023-02-01T02:59:46;0.80;;;0.80;;
55718;SDS011;41623;46.104;19.656;2023-02-01T03:02:32;0.93;;;0.93;;
55718;SDS011;41623;46.104;19.656;2023-02-01T03:05:17;0.70;;;0.70;;
55718;SDS011;41623;46.104;19.656;2023-02-01T03:10:52;0.82;;;0.82;;
55718;SDS011;41623;46.104;19.656;2023-02-01T03:13:03;1.08;;;1.08;;
55718;SDS011;41623;46.104;19.656;2023-02-01T03:18:00;0.88;;;0.88;;
55718;SDS011;41623;46.104;19.656;2023-02-01T03:20:27;0.73;;;0.73;;
55718;SDS011;41623;46.104;19.656;2023-02-01T03:22:53;0.93;;;0.93;;
55718;SDS011;41623;46.104;19.656;2023-02-01T03:25:24;0.98;;;0.95;;
55718;SDS011;41623;46.104;19.656;2023-02-01T03:28:02;1.17;;;1.10;;
55718;SDS011;41623;46.104;19.656;2023-02-01T03:30:31;0.93;;;0.93;;
55718;SDS011;41623;46.104;19.656;2023-02-01T03:32:58;1.20;;;1.15;;
55718;SDS011;41623;46.104;19.656;2023-02-01T03:37:52;1.02;;;0.98;;
55718;SDS011;41623;46.104;19.656;2023-02-01T03:40:19;1.10;;;1.10;;
55718;SDS011;41623;46.104;19.656;2023-02-01T03:42:46;1.38;;;1.27;;
55718;SDS011;41623;46.104;19.656;2023-02-01T03:45:21;1.30;;;1.20;;
55718;SDS011;41623;46.104;19.656;2023-02-01T03:47:49;1.50;;;1.40;;
55718;SDS011;41623;46.104;19.656;2023-02-01T03:50:19;0.98;;;0.98;;
55718;SDS011;41623;46.104;19.656;2023-02-01T03:52:51;1.17;;;1.10;;
55718;SDS011;41623;46.104;19.656;2023-02-01T03:55:19;1.02;;;1.02;;
55718;SDS011;41623;46.104;19.656;2023-02-01T03:57:48;1.38;;;1.00;;
55718;SDS011;41623;46.104;19.656;2023-02-01T04:00:18;1.67;;;1.52;;
55718;SDS011;41623;46.104;19.656;2023-02-01T04:02:44;1.17;;;0.95;;
55718;SDS011;41623;46.104;19.656;2023-02-01T04:05:10;1.42;;;1.30;;
55718;SDS011;41623;46.104;19.656;2023-02-01T04:07:37;2.30;;;1.58;;
55718;SDS011;41623;46.104;19.656;2023-02-01T04:10:03;1.38;;;1.30;;
55718;SDS011;41623;46.104;19.656;2023-02-01T04:12:29;0.98;;;0.95;;
55718;SDS011;41623;46.104;19.656;2023-02-01T04:14:56;1.92;;;1.45;;
55718;SDS011;41623;46.104;19.656;2023-02-01T04:17:23;1.63;;;1.20;;
55718;SDS011;41623;46.104;19.656;2023-02-01T04:19:49;1.13;;;1.02;;
55718;SDS011;41623;46.104;19.656;2023-02-01T04:22:15;1.52;;;1.42;;
55718;SDS011;41623;46.104;19.656;2023-02-01T04:24:41;2.22;;;1.70;;
55718;SDS011;41623;46.104;19.656;2023-02-01T04:27:07;1.98;;;1.75;;
55718;SDS011;41623;46.104;19.656;2023-02-01T04:29:33;1.65;;;1.35;;
55718;SDS011;41623;46.104;19.656;2023-02-01T04:31:59;2.20;;;1.55;;
55718;SDS011;41623;46.104;19.656;2023-02-01T04:34:25;2.97;;;2.05;;
55718;SDS011;41623;46.104;19.656;2023-02-01T04:36:52;5.32;;;2.20;;
55718;SDS011;41623;46.104;19.656;2023-02-01T04:39:18;3.38;;;1.52;;
55718;SDS011;41623;46.104;19.656;2023-02-01T04:41:44;2.53;;;1.83;;
55718;SDS011;41623;46.104;19.656;2023-02-01T04:44:17;2.05;;;1.90;;
55718;SDS011;41623;46.104;19.656;2023-02-01T04:46:44;1.58;;;1.48;;
55718;SDS011;41623;46.104;19.656;2023-02-01T04:49:10;1.75;;;1.52;;
55718;SDS011;41623;46.104;19.656;2023-02-01T04:51:38;2.28;;;1.58;;
55718;SDS011;41623;46.104;19.656;2023-02-01T04:54:04;2.30;;;1.98;;
55718;SDS011;41623;46.104;19.656;2023-02-01T04:56:30;2.08;;;1.52;;
55718;SDS011;41623;46.104;19.656;2023-02-01T04:58:56;1.20;;;0.95;;
55718;SDS011;41623;46.104;19.656;2023-02-01T05:01:23;2.00;;;1.50;;
55718;SDS011;41623;46.104;19.656;2023-02-01T05:03:52;3.88;;;1.77;;
55718;SDS011;41623;46.104;19.656;2023-02-01T05:06:18;1.65;;;1.55;;
55718;SDS011;41623;46.104;19.656;2023-02-01T05:08:44;1.73;;;1.33;;
55718;SDS011;41623;46.104;19.656;2023-02-01T05:11:11;1.73;;;1.40;;
55718;SDS011;41623;46.104;19.656;2023-02-01T05:13:58;5.13;;;3.05;;
55718;SDS011;41623;46.104;19.656;2023-02-01T05:16:24;2.92;;;2.05;;
55718;SDS011;41623;46.104;19.656;2023-02-01T05:18:50;3.83;;;2.30;;
55718;SDS011;41623;46.104;19.656;2023-02-01T05:21:16;1.77;;;1.65;;
55718;SDS011;41623;46.104;19.656;2023-02-01T05:23:43;1.65;;;1.52;;
55718;SDS011;41623;46.104;19.656;2023-02-01T05:26:28;4.25;;;2.67;;
55718;SDS011;41623;46.104;19.656;2023-02-01T05:28:54;5.25;;;4.38;;
55718;SDS011;41623;46.104;19.656;2023-02-01T05:31:20;6.13;;;3.03;;
55718;SDS011;41623;46.104;19.656;2023-02-01T05:33:47;1.90;;;1.75;;
55718;SDS011;41623;46.104;19.656;2023-02-01T05:36:13;2.47;;;2.13;;
55718;SDS011;41623;46.104;19.656;2023-02-01T05:38:39;3.53;;;1.75;;
55718;SDS011;41623;46.104;19.656;2023-02-01T05:41:05;3.92;;;2.30;;
55718;SDS011;41623;46.104;19.656;2023-02-01T05:43:31;4.47;;;2.38;;
55718;SDS011;41623;46.104;19.656;2023-02-01T05:45:57;4.90;;;3.00;;
55718;SDS011;41623;46.104;19.656;2023-02-01T05:48:23;7.15;;;4.47;;
55718;SDS011;41623;46.104;19.656;2023-02-01T05:50:50;14.65;;;5.10;;
55718;SDS011;41623;46.104;19.656;2023-02-01T05:53:16;8.75;;;4.38;;
55718;SDS011;41623;46.104;19.656;2023-02-01T05:55:42;3.60;;;2.80;;
55718;SDS011;41623;46.104;19.656;2023-02-01T05:58:08;6.63;;;2.70;;
55718;SDS011;41623;46.104;19.656;2023-02-01T06:00:34;5.78;;;3.03;;
55718;SDS011;41623;46.104;19.656;2023-02-01T06:03:00;6.03;;;3.25;;
55718;SDS011;41623;46.104;19.656;2023-02-01T06:05:27;3.95;;;2.80;;
55718;SDS011;41623;46.104;19.656;2023-02-01T06:07:53;1.85;;;1.67;;
55718;SDS011;41623;46.104;19.656;2023-02-01T06:10:19;2.15;;;1.95;;
55718;SDS011;41623;46.104;19.656;2023-02-01T06:12:46;4.70;;;2.47;;
55718;SDS011;41623;46.104;19.656;2023-02-01T06:15:12;2.88;;;2.33;;
55718;SDS011;41623;46.104;19.656;2023-02-01T06:17:40;3.70;;;2.40;;
55718;SDS011;41623;46.104;19.656;2023-02-01T06:20:10;4.43;;;2.53;;
55718;SDS011;41623;46.104;19.656;2023-02-01T06:22:37;2.17;;;1.95;;
55718;SDS011;41623;46.104;19.656;2023-02-01T06:25:04;3.28;;;2.28;;
55718;SDS011;41623;46.104;19.656;2023-02-01T06:27:30;7.13;;;2.47;;
55718;SDS011;41623;46.104;19.656;2023-02-01T06:29:57;3.67;;;2.55;;
55718;SDS011;41623;46.104;19.656;2023-02-01T06:32:23;5.63;;;2.58;;
55718;SDS011;41623;46.104;19.656;2023-02-01T06:34:49;2.53;;;1.95;;
55718;SDS011;41623;46.104;19.656;2023-02-01T06:37:17;2.50;;;2.13;;
55718;SDS011;41623;46.104;19.656;2023-02-01T06:39:44;5.07;;;2.45;;
55718;SDS011;41623;46.104;19.656;2023-02-01T06:42:10;9.23;;;4.03;;
55718;SDS011;41623;46.104;19.656;2023-02-01T06:44:36;6.13;;;4.38;;
55718;SDS011;41623;46.104;19.656;2023-02-01T06:47:05;3.63;;;2.83;;
55718;SDS011;41623;46.104;19.656;2023-02-01T06:49:31;3.90;;;3.33;;
55718;SDS011;41623;46.104;19.656;2023-02-01T06:51:57;4.05;;;3.17;;
55718;SDS011;41623;46.104;19.656;2023-02-01T06:54:25;7.45;;;3.78;;
55718;SDS011;41623;46.104;19.656;2023-02-01T06:56:51;8.00;;;3.53;;
55718;SDS011;41623;46.104;19.656;2023-02-01T06:59:17;7.15;;;2.70;;
55718;SDS011;41623;46.104;19.656;2023-02-01T07:01:43;7.47;;;3.20;;
55718;SDS011;41623;46.104;19.656;2023-02-01T07:04:10;5.15;;;4.32;;
55718;SDS011;41623;46.104;19.656;2023-02-01T07:06:37;6.72;;;4.60;;
55718;SDS011;41623;46.104;19.656;2023-02-01T07:09:03;7.45;;;4.13;;
55718;SDS011;41623;46.104;19.656;2023-02-01T07:11:29;3.25;;;2.70;;
55718;SDS011;41623;46.104;19.656;2023-02-01T07:13:55;4.72;;;2.53;;
55718;SDS011;41623;46.104;19.656;2023-02-01T07:16:21;3.33;;;2.30;;
55718;SDS011;41623;46.104;19.656;2023-02-01T07:18:48;4.50;;;2.72;;
55718;SDS011;41623;46.104;19.656;2023-02-01T07:21:15;6.38;;;2.92;;
55718;SDS011;41623;46.104;19.656;2023-02-01T07:23:41;3.38;;;2.70;;
55718;SDS011;41623;46.104;19.656;2023-02-01T07:26:08;5.45;;;2.72;;
55718;SDS011;41623;46.104;19.656;2023-02-01T07:28:35;3.78;;;2.65;;
55718;SDS011;41623;46.104;19.656;2023-02-01T07:31:06;4.95;;;2.30;;
55718;SDS011;41623;46.104;19.656;2023-02-01T07:33:32;2.92;;;2.20;;
55718;SDS011;41623;46.104;19.656;2023-02-01T07:35:59;2.20;;;1.88;;
55718;SDS011;41623;46.104;19.656;2023-02-01T07:38:26;2.50;;;2.13;;
55718;SDS011;41623;46.104;19.656;2023-02-01T07:40:56;4.05;;;2.60;;
55718;SDS011;41623;46.104;19.656;2023-02-01T07:43:23;14.98;;;5.03;;
55718;SDS011;41623;46.104;19.656;2023-02-01T07:45:52;7.38;;;4.05;;
55718;SDS011;41623;46.104;19.656;2023-02-01T07:48:19;3.80;;;2.28;;
55718;SDS011;41623;46.104;19.656;2023-02-01T07:50:45;11.63;;;4.40;;
55718;SDS011;41623;46.104;19.656;2023-02-01T07:53:11;5.85;;;3.35;;
55718;SDS011;41623;46.104;19.656;2023-02-01T07:55:38;9.02;;;4.05;;
55718;SDS011;41623;46.104;19.656;2023-02-01T07:58:04;1.55;;;1.33;;
55718;SDS011;41623;46.104;19.656;2023-02-01T08:00:30;8.35;;;3.42;;
55718;SDS011;41623;46.104;19.656;2023-02-01T08:03:15;11.57;;;3.53;;
55718;SDS011;41623;46.104;19.656;2023-02-01T08:05:41;8.52;;;3.33;;
55718;SDS011;41623;46.104;19.656;2023-02-01T08:08:09;4.57;;;2.50;;
55718;SDS011;41623;46.104;19.656;2023-02-01T08:10:35;3.38;;;1.83;;
55718;SDS011;41623;46.104;19.656;2023-02-01T08:13:02;2.05;;;1.85;;
55718;SDS011;41623;46.104;19.656;2023-02-01T08:15:28;2.72;;;1.67;;
55718;SDS011;41623;46.104;19.656;2023-02-01T08:17:55;4.25;;;2.72;;
55718;SDS011;41623;46.104;19.656;2023-02-01T08:20:22;1.73;;;1.42;;
55718;SDS011;41623;46.104;19.656;2023-02-01T08:22:49;2.65;;;2.13;;
55718;SDS011;41623;46.104;19.656;2023-02-01T08:25:15;2.15;;;1.95;;
55718;SDS011;41623;46.104;19.656;2023-02-01T08:27:42;0.98;;;0.95;;
55718;SDS011;41623;46.104;19.656;2023-02-01T08:30:08;5.72;;;3.28;;
55718;SDS011;41623;46.104;19.656;2023-02-01T08:32:36;5.25;;;2.65;;
55718;SDS011;41623;46.104;19.656;2023-02-01T08:35:03;1.30;;;1.20;;
55718;SDS011;41623;46.104;19.656;2023-02-01T08:37:29;1.35;;;1.25;;
55718;SDS011;41623;46.104;19.656;2023-02-01T08:39:55;3.00;;;1.30;;
55718;SDS011;41623;46.104;19.656;2023-02-01T08:42:21;1.92;;;1.83;;
55718;SDS011;41623;46.104;19.656;2023-02-01T08:45:05;3.75;;;1.67;;
55718;SDS011;41623;46.104;19.656;2023-02-01T08:47:33;1.70;;;1.20;;
55718;SDS011;41623;46.104;19.656;2023-02-01T08:49:59;5.43;;;2.35;;
55718;SDS011;41623;46.104;19.656;2023-02-01T08:52:25;3.45;;;2.33;;
55718;SDS011;41623;46.104;19.656;2023-02-01T08:54:51;1.40;;;1.15;;
55718;SDS011;41623;46.104;19.656;2023-02-01T08:57:17;0.95;;;0.95;;
55718;SDS011;41623;46.104;19.656;2023-02-01T08:59:43;1.13;;;1.05;;
55718;SDS011;41623;46.104;19.656;2023-02-01T09:02:13;1.50;;;1.40;;
55718;SDS011;41623;46.104;19.656;2023-02-01T09:04:41;2.72;;;1.48;;
55718;SDS011;41623;46.104;19.656;2023-02-01T09:07:08;3.35;;;2.70;;
55718;SDS011;41623;46.104;19.656;2023-02-01T09:09:34;6.00;;;3.75;;
55718;SDS011;41623;46.104;19.656;2023-02-01T09:12:00;5.80;;;3.63;;
55718;SDS011;41623;46.104;19.656;2023-02-01T09:14:26;7.47;;;4.20;;
55718;SDS011;41623;46.104;19.656;2023-02-01T09:16:52;4.80;;;3.03;;
55718;SDS011;41623;46.104;19.656;2023-02-01T09:19:18;4.13;;;2.90;;
55718;SDS011;41623;46.104;19.656;2023-02-01T09:21:44;2.53;;;2.33;;
55718;SDS011;41623;46.104;19.656;2023-02-01T09:24:11;1.55;;;1.17;;
55718;SDS011;41623;46.104;19.656;2023-02-01T09:26:37;2.85;;;1.50;;
55718;SDS011;41623;46.104;19.656;2023-02-01T09:29:03;1.42;;;1.25;;
55718;SDS011;41623;46.104;19.656;2023-02-01T09:31:35;1.65;;;1.52;;
55718;SDS011;41623;46.104;19.656;2023-02-01T09:34:01;1.75;;;1.50;;
55718;SDS011;41623;46.104;19.656;2023-02-01T09:36:27;1.73;;;1.13;;
55718;SDS011;41623;46.104;19.656;2023-02-01T09:38:53;2.90;;;1.45;;
55718;SDS011;41623;46.104;19.656;2023-02-01T09:41:41;3.88;;;1.50;;
55718;SDS011;41623;46.104;19.656;2023-02-01T09:46:43;4.40;;;1.83;;
55718;SDS011;41623;46.104;19.656;2023-02-01T09:49:12;4.97;;;1.90;;
55718;SDS011;41623;46.104;19.656;2023-02-01T09:51:41;2.55;;;1.58;;
55718;SDS011;41623;46.104;19.656;2023-02-01T09:54:16;2.00;;;1.73;;
55718;SDS011;41623;46.104;19.656;2023-02-01T10:01:55;4.30;;;1.83;;
55718;SDS011;41623;46.104;19.656;2023-02-01T10:04:22;1.63;;;1.52;;
55718;SDS011;41623;46.104;19.656;2023-02-01T10:09:16;3.15;;;2.22;;
55718;SDS011;41623;46.104;19.656;2023-02-01T10:19:24;4.80;;;2.20;;
55718;SDS011;41623;46.104;19.656;2023-02-01T10:22:00;2.22;;;1.85;;
55718;SDS011;41623;46.104;19.656;2023-02-01T10:24:37;2.58;;;1.30;;
55718;SDS011;41623;46.104;19.656;2023-02-01T10:29:41;1.08;;;1.08;;
55718;SDS011;41623;46.104;19.656;2023-02-01T10:32:18;1.55;;;1.45;;
55718;SDS011;41623;46.104;19.656;2023-02-01T10:34:48;0.98;;;0.98;;
55718;SDS011;41623;46.104;19.656;2023-02-01T10:37:18;1.50;;;1.25;;
55718;SDS011;41623;46.104;19.656;2023-02-01T10:39:47;1.73;;;1.63;;
55718;SDS011;41623;46.104;19.656;2023-02-01T10:42:14;5.15;;;1.67;;
55718;SDS011;41623;46.104;19.656;2023-02-01T10:44:42;1.48;;;1.38;;
55718;SDS011;41623;46.104;19.656;2023-02-01T10:47:10;1.10;;;1.10;;
55718;SDS011;41623;46.104;19.656;2023-02-01T10:50:00;1.75;;;1.65;;
55718;SDS011;41623;46.104;19.656;2023-02-01T10:52:31;1.75;;;1.40;;
55718;SDS011;41623;46.104;19.656;2023-02-01T10:55:20;1.67;;;1.58;;
55718;SDS011;41623;46.104;19.656;2023-02-01T10:57:48;5.88;;;3.03;;
55718;SDS011;41623;46.104;19.656;2023-02-01T11:00:20;15.13;;;4.13;;
55718;SDS011;41623;46.104;19.656;2023-02-01T11:02:48;10.55;;;4.65;;
55718;SDS011;41623;46.104;19.656;2023-02-01T11:05:15;5.78;;;3.65;;
55718;SDS011;41623;46.104;19.656;2023-02-01T11:08:02;10.40;;;3.72;;
55718;SDS011;41623;46.104;19.656;2023-02-01T11:10:36;8.43;;;4.55;;
55718;SDS011;41623;46.104;19.656;2023-02-01T11:13:03;2.80;;;1.83;;
55718;SDS011;41623;46.104;19.656;2023-02-01T11:15:29;4.38;;;3.58;;
55718;SDS011;41623;46.104;19.656;2023-02-01T11:17:56;3.47;;;2.45;;
55718;SDS011;41623;46.104;19.656;2023-02-01T11:20:38;3.03;;;1.70;;
55718;SDS011;41623;46.104;19.656;2023-02-01T11:23:05;2.40;;;2.03;;
55718;SDS011;41623;46.104;19.656;2023-02-01T11:25:39;7.03;;;4.03;;
55718;SDS011;41623;46.104;19.656;2023-02-01T11:28:13;4.35;;;2.50;;
55718;SDS011;41623;46.104;19.656;2023-02-01T11:30:41;1.98;;;1.48;;
55718;SDS011;41623;46.104;19.656;2023-02-01T11:33:12;4.10;;;2.05;;
55718;SDS011;41623;46.104;19.656;2023-02-01T11:35:38;1.30;;;1.20;;
55718;SDS011;41623;46.104;19.656;2023-02-01T11:38:17;3.15;;;1.60;;
55718;SDS011;41623;46.104;19.656;2023-02-01T11:40:45;1.77;;;1.42;;
55718;SDS011;41623;46.104;19.656;2023-02-01T11:43:28;2.10;;;1.55;;
55718;SDS011;41623;46.104;19.656;2023-02-01T11:45:58;1.10;;;1.05;;
55718;SDS011;41623;46.104;19.656;2023-02-01T11:48:25;1.30;;;1.20;;
55718;SDS011;41623;46.104;19.656;2023-02-01T11:53:25;0.93;;;0.93;;
55718;SDS011;41623;46.104;19.656;2023-02-01T12:29:18;2.25;;;1.90;;
55718;SDS011;41623;46.104;19.656;2023-02-01T12:34:20;4.32;;;2.50;;
55718;SDS011;41623;46.104;19.656;2023-02-01T12:46:53;2.55;;;2.08;;
55718;SDS011;41623;46.104;19.656;2023-02-01T12:49:27;1.58;;;1.35;;
55718;SDS011;41623;46.104;19.656;2023-02-01T12:51:58;1.73;;;1.63;;
55718;SDS011;41623;46.104;19.656;2023-02-01T12:54:30;2.90;;;1.42;;
55718;SDS011;41623;46.104;19.656;2023-02-01T12:57:04;2.33;;;1.25;;
55718;SDS011;41623;46.104;19.656;2023-02-01T13:07:24;1.13;;;1.05;;
55718;SDS011;41623;46.104;19.656;2023-02-01T13:09:55;0.95;;;0.95;;
55718;SDS011;41623;46.104;19.656;2023-02-01T13:12:30;1.17;;;1.10;;
55718;SDS011;41623;46.104;19.656;2023-02-01T13:14:59;4.43;;;1.23;;
55718;SDS011;41623;46.104;19.656;2023-02-01T13:17:27;1.92;;;1.63;;
55718;SDS011;41623;46.104;19.656;2023-02-01T13:19:57;2.50;;;1.23;;
55718;SDS011;41623;46.104;19.656;2023-02-01T13:22:26;1.35;;;1.25;;
55718;SDS011;41623;46.104;19.656;2023-02-01T13:24:55;1.63;;;1.45;;
55718;SDS011;41623;46.104;19.656;2023-02-01T13:27:22;1.38;;;1.08;;
55718;SDS011;41623;46.104;19.656;2023-02-01T13:42:35;5.13;;;2.75;;
55718;SDS011;41623;46.104;19.656;2023-02-01T13:45:04;2.97;;;2.20;;
55718;SDS011;41623;46.104;19.656;2023-02-01T13:47:38;2.53;;;2.15;;
55718;SDS011;41623;46.104;19.656;2023-02-01T13:50:19;4.97;;;1.92;;
55718;SDS011;41623;46.104;19.656;2023-02-01T13:52:56;3.05;;;1.50;;
55718;SDS011;41623;46.104;19.656;2023-02-01T13:55:25;4.90;;;2.30;;
55718;SDS011;41623;46.104;19.656;2023-02-01T13:57:58;6.43;;;3.85;;
55718;SDS011;41623;46.104;19.656;2023-02-01T14:00:29;3.83;;;2.65;;
55718;SDS011;41623;46.104;19.656;2023-02-01T14:15:52;4.88;;;3.22;;
55718;SDS011;41623;46.104;19.656;2023-02-01T14:24:00;12.35;;;4.88;;
55718;SDS011;41623;46.104;19.656;2023-02-01T14:26:40;13.05;;;4.70;;
55718;SDS011;41623;46.104;19.656;2023-02-01T14:34:12;9.15;;;3.92;;
55718;SDS011;41623;46.104;19.656;2023-02-01T14:37:39;4.40;;;2.97;;
55718;SDS011;41623;46.104;19.656;2023-02-01T14:42:02;9.65;;;5.05;;
55718;SDS011;41623;46.104;19.656;2023-02-01T14:44:30;7.25;;;4.50;;
55718;SDS011;41623;46.104;19.656;2023-02-01T14:47:04;6.22;;;2.83;;
55718;SDS011;41623;46.104;19.656;2023-02-01T14:49:34;3.97;;;3.03;;
55718;SDS011;41623;46.104;19.656;2023-02-01T14:52:02;3.85;;;2.42;;
55718;SDS011;41623;46.104;19.656;2023-02-01T14:54:30;5.85;;;2.63;;
55718;SDS011;41623;46.104;19.656;2023-02-01T14:56:57;1.58;;;1.42;;
55718;SDS011;41623;46.104;19.656;2023-02-01T14:59:23;4.25;;;2.80;;
55718;SDS011;41623;46.104;19.656;2023-02-01T15:01:55;6.00;;;3.25;;
55718;SDS011;41623;46.104;19.656;2023-02-01T15:04:24;17.15;;;5.70;;
55718;SDS011;41623;46.104;19.656;2023-02-01T15:06:52;15.80;;;7.10;;
55718;SDS011;41623;46.104;19.656;2023-02-01T15:14:38;14.20;;;6.88;;
55718;SDS011;41623;46.104;19.656;2023-02-01T15:17:39;12.07;;;5.38;;
55718;SDS011;41623;46.104;19.656;2023-02-01T15:20:03;9.82;;;4.70;;
55718;SDS011;41623;46.104;19.656;2023-02-01T15:22:31;6.00;;;3.60;;
55718;SDS011;41623;46.104;19.656;2023-02-01T15:25:00;9.40;;;4.60;;
55718;SDS011;41623;46.104;19.656;2023-02-01T15:27:26;13.15;;;5.85;;
55718;SDS011;41623;46.104;19.656;2023-02-01T15:29:54;10.30;;;5.63;;
55718;SDS011;41623;46.104;19.656;2023-02-01T15:32:32;27.60;;;10.02;;
55718;SDS011;41623;46.104;19.656;2023-02-01T15:34:59;13.27;;;5.75;;
55718;SDS011;41623;46.104;19.656;2023-02-01T15:37:25;9.15;;;6.30;;
55718;SDS011;41623;46.104;19.656;2023-02-01T15:42:53;20.63;;;6.78;;
55718;SDS011;41623;46.104;19.656;2023-02-01T15:45:19;20.00;;;6.93;;
55718;SDS011;41623;46.104;19.656;2023-02-01T15:47:47;8.90;;;4.28;;
55718;SDS011;41623;46.104;19.656;2023-02-01T15:50:17;5.45;;;3.25;;
55718;SDS011;41623;46.104;19.656;2023-02-01T15:52:45;2.30;;;1.75;;
55718;SDS011;41623;46.104;19.656;2023-02-01T15:57:58;3.83;;;2.25;;
55718;SDS011;41623;46.104;19.656;2023-02-01T16:00:27;1.92;;;1.40;;
55718;SDS011;41623;46.104;19.656;2023-02-01T16:05:31;2.90;;;1.33;;
55718;SDS011;41623;46.104;19.656;2023-02-01T16:08:03;1.48;;;1.35;;
55718;SDS011;41623;46.104;19.656;2023-02-01T16:10:30;1.20;;;1.10;;
55718;SDS011;41623;46.104;19.656;2023-02-01T16:12:56;1.23;;;0.82;;
55718;SDS011;41623;46.104;19.656;2023-02-01T16:15:26;2.00;;;1.27;;
55718;SDS011;41623;46.104;19.656;2023-02-01T16:17:54;1.85;;;1.35;;
55718;SDS011;41623;46.104;19.656;2023-02-01T16:20:20;1.85;;;1.65;;
55718;SDS011;41623;46.104;19.656;2023-02-01T16:22:46;6.95;;;2.55;;
55718;SDS011;41623;46.104;19.656;2023-02-01T16:25:12;5.30;;;2.13;;
55718;SDS011;41623;46.104;19.656;2023-02-01T16:27:38;3.95;;;2.17;;
55718;SDS011;41623;46.104;19.656;2023-02-01T16:30:04;2.63;;;1.67;;
55718;SDS011;41623;46.104;19.656;2023-02-01T16:32:33;2.42;;;1.48;;
55718;SDS011;41623;46.104;19.656;2023-02-01T16:35:03;7.20;;;2.42;;
55718;SDS011;41623;46.104;19.656;2023-02-01T16:37:30;2.40;;;1.83;;
55718;SDS011;41623;46.104;19.656;2023-02-01T16:39:58;1.95;;;1.60;;
55718;SDS011;41623;46.104;19.656;2023-02-01T16:42:24;9.25;;;2.78;;
55718;SDS011;41623;46.104;19.656;2023-02-01T16:44:51;6.05;;;2.08;;
55718;SDS011;41623;46.104;19.656;2023-02-01T16:47:18;6.25;;;2.55;;
55718;SDS011;41623;46.104;19.656;2023-02-01T16:49:45;11.93;;;4.43;;
55718;SDS011;41623;46.104;19.656;2023-02-01T16:52:16;8.20;;;3.60;;
55718;SDS011;41623;46.104;19.656;2023-02-01T16:54:44;8.45;;;4.38;;
55718;SDS011;41623;46.104;19.656;2023-02-01T16:57:13;5.90;;;3.00;;
55718;SDS011;41623;46.104;19.656;2023-02-01T16:59:40;9.18;;;3.20;;
55718;SDS011;41623;46.104;19.656;2023-02-01T17:02:16;8.43;;;3.53;;
55718;SDS011;41623;46.104;19.656;2023-02-01T17:04:44;7.40;;;4.13;;
55718;SDS011;41623;46.104;19.656;2023-02-01T17:07:16;16.50;;;4.80;;
55718;SDS011;41623;46.104;19.656;2023-02-01T17:09:43;12.57;;;5.77;;
55718;SDS011;41623;46.104;19.656;2023-02-01T17:12:43;10.27;;;4.50;;
55718;SDS011;41623;46.104;19.656;2023-02-01T17:15:02;6.20;;;3.35;;
55718;SDS011;41623;46.104;19.656;2023-02-01T17:17:33;8.85;;;3.50;;
55718;SDS011;41623;46.104;19.656;2023-02-01T17:19:59;9.20;;;4.07;;
55718;SDS011;41623;46.104;19.656;2023-02-01T17:22:25;4.43;;;3.03;;
55718;SDS011;41623;46.104;19.656;2023-02-01T17:24:51;4.22;;;2.88;;
55718;SDS011;41623;46.104;19.656;2023-02-01T17:27:20;8.18;;;4.30;;
55718;SDS011;41623;46.104;19.656;2023-02-01T17:29:46;4.13;;;3.20;;